Time;durP1;ratioP1;P1;durP2;ratioP2;P2;SDS_P1;SDS_P2;PMS_P1;PMS_P2;Temp;Humidity;BMP_temperature;BMP_pressure;BME280_temperature;BME280_humidity;BME280_pressure;Samples;Min_cycle;Max_cycle;Signal;HPM_P1;HPM_P2
2023/02/03 00:00:31;;;;;;;;;;;;;;;12.52;71.59;102083.47;1264690;23;645;-70
2023/02/03 00:01:22;;;;;;;;;;;;;;;12.53;72.60;102078.97;1265838;23;673;-70
2023/02/03 00:02:12;;;;;;;;;;;;;;;12.52;72.13;102071.91;1266107;23;653;-70
2023/02/03 00:03:03;;;;;;;;;;;;;;;12.53;72.06;102084.31;1265898;23;647;-70
2023/02/03 00:03:53;;;;;;;;;;;;;;;12.53;71.65;102070.97;1266179;23;688;-70
2023/02/03 00:04:44;;;;;;;;;;;;;;;12.55;72.09;102070.84;1264113;23;658;-71
2023/02/03 00:05:34;;;;;;;;;;;;;;;12.53;72.25;102078.97;1264300;23;626;-71
2023/02/03 00:06:24;;;;;;;;;;;;;;;12.55;71.55;102086.88;1266128;23;660;-71
2023/02/03 00:07:15;;;;;;;;;;;;;;;12.54;72.27;102083.34;1265797;23;595;-70
2023/02/03 00:08:05;;;;;;;;;;;;;;;12.54;72.18;102080.69;1266160;23;684;-70
2023/02/03 00:08:57;;;;;;;;;;;;;;;12.53;71.56;102089.69;1265857;23;618;-70
2023/02/03 00:09:47;;;;;;;;;;;;;;;12.53;71.53;102089.69;1265540;23;625;-70
2023/02/03 00:10:38;;;;;;;;;;;;;;;12.55;71.46;102100.25;1266664;23;638;-70
2023/02/03 00:11:28;;;;;;;;;;;;;;;12.54;71.89;102101.22;1265872;23;653;-70
2023/02/03 00:12:18;;;;;;;;;;;;;;;12.54;72.32;102096.72;1264610;23;670;-70
2023/02/03 00:13:09;;;;;;;;;;;;;;;12.53;72.03;102103.03;1266703;23;642;-70
2023/02/03 00:13:59;;;;;;;;;;;;;;;12.52;71.65;102098.63;1265978;23;628;-70
2023/02/03 00:14:50;;;;;;;;;;;;;;;12.54;71.32;102103.91;1264110;23;626;-70
2023/02/03 00:15:40;;;;;;;;;;;;;;;12.53;72.10;102103.03;1265987;23;1128;-70
2023/02/03 00:16:31;;;;;;;;;;;;;;;12.54;71.41;102101.22;1266608;23;638;-70
2023/02/03 00:17:21;;;;;;;;;;;;;;;12.54;72.08;102107.41;1264264;23;784;-70
2023/02/03 00:18:11;;;;;;;;;;;;;;;12.53;72.22;102100.38;1264586;23;636;-70
2023/02/03 00:19:02;;;;;;;;;;;;;;;12.53;71.82;102111.06;1266047;23;610;-70
2023/02/03 00:19:52;;;;;;;;;;;;;;;12.55;71.83;102108.28;1266060;23;637;-69
2023/02/03 00:20:43;;;;;;;;;;;;;;;12.53;71.99;102108.38;1266668;23;1905;-69
2023/02/03 00:21:33;;;;;;;;;;;;;;;12.54;71.30;102110.09;1264458;23;645;-70
2023/02/03 00:22:24;;;;;;;;;;;;;;;12.54;71.28;102112.75;1266551;23;622;-70
2023/02/03 00:23:14;;;;;;;;;;;;;;;12.55;72.33;102109.16;1264178;23;628;-70
2023/02/03 00:24:04;;;;;;;;;;;;;;;12.54;72.09;102114.59;1266015;23;617;-70
2023/02/03 00:24:55;;;;;;;;;;;;;;;12.52;71.47;102115.53;1264629;23;697;-70
2023/02/03 00:25:45;;;;;;;;;;;;;;;12.52;71.78;102109.34;1267236;23;703;-70
2023/02/03 00:26:36;;;;;;;;;;;;;;;12.50;71.31;102113.91;1265912;23;634;-70
2023/02/03 00:27:26;;;;;;;;;;;;;;;12.51;71.79;102112.94;1265893;23;662;-69
2023/02/03 00:28:17;;;;;;;;;;;;;;;12.52;71.93;102101.31;1265935;23;638;-69
2023/02/03 00:29:08;;;;;;;;;;;;;;;12.50;71.79;102101.41;1264115;23;626;-70
2023/02/03 00:29:58;;;;;;;;;;;;;;;12.50;72.07;102105.88;1266122;23;610;-70
2023/02/03 00:30:52;;;;;;;;;;;;;;;12.49;71.42;102101.47;1265886;23;597;-70
2023/02/03 00:31:43;;;;;;;;;;;;;;;12.50;71.18;102092.50;1265848;23;649;-69
2023/02/03 00:32:33;;;;;;;;;;;;;;;12.51;71.37;102107.59;1264326;23;677;-69
2023/02/03 00:33:24;;;;;;;;;;;;;;;12.51;72.04;102108.47;1264502;23;678;-69
2023/02/03 00:34:14;;;;;;;;;;;;;;;12.50;71.87;102109.41;1266553;23;652;-69
2023/02/03 00:35:04;;;;;;;;;;;;;;;12.52;71.74;102110.19;1271282;23;608;-70
2023/02/03 00:35:55;;;;;;;;;;;;;;;12.53;71.20;102103.03;1265978;23;626;-69
2023/02/03 00:36:47;;;;;;;;;;;;;;;12.52;71.78;102104.00;1266032;23;689;-69
2023/02/03 00:37:37;;;;;;;;;;;;;;;12.51;71.30;102108.47;1265871;23;650;-70
2023/02/03 00:38:27;;;;;;;;;;;;;;;12.51;71.30;102113.81;1266050;23;653;-70
2023/02/03 00:39:18;;;;;;;;;;;;;;;12.52;71.52;102114.69;1265831;23;614;-70
2023/02/03 00:40:08;;;;;;;;;;;;;;;12.54;71.76;102122.63;1265954;23;700;-70
2023/02/03 00:40:59;;;;;;;;;;;;;;;12.51;72.16;102115.63;1266365;23;1885;-70
2023/02/03 00:41:49;;;;;;;;;;;;;;;12.52;71.38;102101.31;1265961;23;650;-70
2023/02/03 00:42:40;;;;;;;;;;;;;;;12.53;72.30;102105.72;1265982;23;722;-69
2023/02/03 00:43:30;;;;;;;;;;;;;;;12.51;71.12;102099.59;1265822;23;662;-70
2023/02/03 00:44:20;;;;;;;;;;;;;;;12.51;71.90;102096.91;1265788;23;1238;-70
2023/02/03 00:45:11;;;;;;;;;;;;;;;12.52;71.86;102098.63;1266554;23;701;-71
2023/02/03 00:46:01;;;;;;;;;;;;;;;12.51;71.33;102108.47;1265997;23;637;-72
2023/02/03 00:46:52;;;;;;;;;;;;;;;12.51;71.41;102115.63;1267554;23;641;-71
2023/02/03 00:47:42;;;;;;;;;;;;;;;12.51;71.78;102112.94;1264324;23;592;-70
2023/02/03 00:48:33;;;;;;;;;;;;;;;12.51;71.26;102099.59;1267601;23;665;-71
2023/02/03 00:49:23;;;;;;;;;;;;;;;12.49;71.84;102096.13;1265371;23;621;-71
2023/02/03 00:50:14;;;;;;;;;;;;;;;12.49;72.21;102093.44;1266104;23;630;-70
2023/02/03 00:51:04;;;;;;;;;;;;;;;12.50;72.07;102089.84;1264058;23;626;-69
2023/02/03 00:51:54;;;;;;;;;;;;;;;12.50;71.37;102089.84;1264945;23;653;-70
2023/02/03 00:52:45;;;;;;;;;;;;;;;12.50;71.49;102084.47;1266230;23;663;-69
2023/02/03 00:53:35;;;;;;;;;;;;;;;12.51;71.35;102081.72;1271437;23;602;-69
2023/02/03 00:54:26;;;;;;;;;;;;;;;12.51;71.69;102094.25;1265775;23;641;-69
2023/02/03 00:55:16;;;;;;;;;;;;;;;12.52;71.91;102093.28;1264160;23;631;-69
2023/02/03 00:56:11;;;;;;;;;;;;;;;12.51;71.71;102083.53;1266024;23;624;-70
2023/02/03 00:57:01;;;;;;;;;;;;;;;12.51;71.20;102096.91;1266057;23;708;-69
2023/02/03 00:57:52;;;;;;;;;;;;;;;12.49;71.08;102083.63;1265728;23;630;-70
2023/02/03 00:58:42;;;;;;;;;;;;;;;12.51;71.46;102091.56;1265874;23;633;-69
2023/02/03 00:59:33;;;;;;;;;;;;;;;12.52;71.95;102094.16;1266414;23;681;-69
2023/02/03 01:00:23;;;;;;;;;;;;;;;12.51;72.11;102097.78;1265824;23;631;-69
2023/02/03 01:01:14;;;;;;;;;;;;;;;12.53;71.66;102089.69;1266027;23;650;-69
2023/02/03 01:02:04;;;;;;;;;;;;;;;12.52;71.93;102085.28;1266636;23;630;-70
2023/02/03 01:02:54;;;;;;;;;;;;;;;12.51;71.28;102089.75;1266044;23;637;-70
2023/02/03 01:03:45;;;;;;;;;;;;;;;12.52;72.33;102075.44;1263271;23;679;-69
2023/02/03 01:04:35;;;;;;;;;;;;;;;12.51;71.74;102080.88;1265980;23;782;-69
2023/02/03 01:05:26;;;;;;;;;;;;;;;12.50;72.18;102073.78;1263881;23;626;-69
2023/02/03 01:06:16;;;;;;;;;;;;;;;12.51;72.32;102075.53;1264186;23;642;-69
2023/02/03 01:07:06;;;;;;;;;;;;;;;12.51;72.17;102081.72;1264558;23;650;-69
2023/02/03 01:07:57;;;;;;;;;;;;;;;12.51;71.93;102088.88;1265759;23;630;-70
2023/02/03 01:08:47;;;;;;;;;;;;;;;12.51;71.22;102076.38;1265871;23;617;-69
2023/02/03 01:09:38;;;;;;;;;;;;;;;12.52;71.44;102067.41;1266584;23;677;-69
2023/02/03 01:10:28;;;;;;;;;;;;;;;12.52;71.85;102077.25;1265818;23;635;-69
2023/02/03 01:11:18;;;;;;;;;;;;;;;12.52;71.44;102083.47;1264548;23;665;-69
2023/02/03 01:12:09;;;;;;;;;;;;;;;12.53;71.95;102073.63;1263937;23;642;-69
2023/02/03 01:12:59;;;;;;;;;;;;;;;12.53;71.92;102089.69;1265891;23;622;-69
2023/02/03 01:13:50;;;;;;;;;;;;;;;12.53;71.15;102087.00;1265704;23;610;-70
2023/02/03 01:14:40;;;;;;;;;;;;;;;12.52;71.19;102083.47;1265930;23;641;-69
2023/02/03 01:15:31;;;;;;;;;;;;;;;12.51;71.77;102081.72;1263875;23;638;-70
2023/02/03 01:16:21;;;;;;;;;;;;;;;12.51;71.54;102080.88;1265856;23;614;-70
2023/02/03 01:17:12;;;;;;;;;;;;;;;12.50;72.07;102098.72;1264619;23;610;-69
2023/02/03 01:18:02;;;;;;;;;;;;;;;12.49;72.06;102098.78;1264098;23;650;-69
2023/02/03 01:18:52;;;;;;;;;;;;;;;12.50;71.34;102095.19;1264787;23;674;-70
2023/02/03 01:19:43;;;;;;;;;;;;;;;12.49;72.07;102077.41;1267321;23;646;-70
2023/02/03 01:20:33;;;;;;;;;;;;;;;12.50;71.33;102068.44;1267441;23;792;-70
2023/02/03 01:21:24;;;;;;;;;;;;;;;12.50;71.92;102073.78;1266745;23;668;-69
2023/02/03 01:22:14;;;;;;;;;;;;;;;12.50;71.16;102074.66;1265985;23;651;-69
2023/02/03 01:23:05;;;;;;;;;;;;;;;12.51;71.38;102072.84;1263986;23;627;-70
2023/02/03 01:23:55;;;;;;;;;;;;;;;12.49;71.36;102070.25;1264363;23;665;-70
2023/02/03 01:24:46;;;;;;;;;;;;;;;12.50;71.09;102063.09;1263753;23;606;-70
2023/02/03 01:25:36;;;;;;;;;;;;;;;12.50;71.63;102063.97;1265798;23;638;-69
2023/02/03 01:26:27;;;;;;;;;;;;;;;12.49;71.35;102056.03;1265908;23;610;-69
2023/02/03 01:27:17;;;;;;;;;;;;;;;12.50;71.40;102060.41;1265807;23;587;-70
2023/02/03 01:28:08;;;;;;;;;;;;;;;12.50;71.56;102057.75;1265964;23;632;-69
2023/02/03 01:28:58;;;;;;;;;;;;;;;12.51;71.41;102054.13;1265655;23;639;-70
2023/02/03 01:29:48;;;;;;;;;;;;;;;12.50;72.22;102052.41;1264323;23;634;-70
2023/02/03 01:30:39;;;;;;;;;;;;;;;12.51;72.16;102064.81;1265559;23;689;-70
2023/02/03 01:31:29;;;;;;;;;;;;;;;12.50;71.59;102065.78;1264645;23;638;-70
2023/02/03 01:32:20;;;;;;;;;;;;;;;12.50;71.53;102058.63;1268127;23;633;-70
2023/02/03 01:33:10;;;;;;;;;;;;;;;12.50;71.78;102061.28;1271401;23;649;-70
2023/02/03 01:34:01;;;;;;;;;;;;;;;12.52;71.92;102055.84;1266082;23;664;-70
2023/02/03 01:34:51;;;;;;;;;;;;;;;12.51;71.39;102057.66;1263965;23;591;-70
2023/02/03 01:35:41;;;;;;;;;;;;;;;12.52;71.27;102047.84;1265953;23;685;-70
2023/02/03 01:36:32;;;;;;;;;;;;;;;12.52;71.50;102055.84;1266495;23;594;-70
2023/02/03 01:37:22;;;;;;;;;;;;;;;12.52;71.46;102053.19;1265833;23;649;-70
2023/02/03 01:38:13;;;;;;;;;;;;;;;12.52;72.00;102046.03;1265497;23;765;-69
2023/02/03 01:39:03;;;;;;;;;;;;;;;12.53;72.21;102041.53;1265819;23;620;-69
2023/02/03 01:39:54;;;;;;;;;;;;;;;12.53;71.89;102049.56;1264521;23;941;-70
2023/02/03 01:40:44;;;;;;;;;;;;;;;12.52;71.79;102042.50;1266526;23;622;-70
2023/02/03 01:41:34;;;;;;;;;;;;;;;12.51;71.19;102041.63;1265978;23;653;-70
2023/02/03 01:42:25;;;;;;;;;;;;;;;12.52;71.65;102050.50;1263821;23;607;-70
2023/02/03 01:43:15;;;;;;;;;;;;;;;12.51;71.45;102051.44;1265743;23;696;-70
2023/02/03 01:44:06;;;;;;;;;;;;;;;12.50;71.22;102063.97;1266180;23;1131;-69
2023/02/03 01:44:57;;;;;;;;;;;;;;;12.50;71.70;102063.09;1264023;23;582;-70
2023/02/03 01:45:47;;;;;;;;;;;;;;;12.51;71.50;102064.81;1265870;23;638;-70
2023/02/03 01:46:38;;;;;;;;;;;;;;;12.51;71.93;102070.16;1264488;23;626;-70
2023/02/03 01:47:28;;;;;;;;;;;;;;;12.50;71.63;102068.44;1265138;23;622;-69
2023/02/03 01:48:18;;;;;;;;;;;;;;;12.50;71.68;102077.31;1264319;23;630;-69
2023/02/03 01:49:09;;;;;;;;;;;;;;;12.51;72.27;102071.03;1265692;23;665;-70
2023/02/03 01:49:59;;;;;;;;;;;;;;;12.52;72.35;102062.06;1265776;23;635;-69
2023/02/03 01:50:50;;;;;;;;;;;;;;;12.53;71.72;102060.25;1266503;23;602;-70
2023/02/03 01:51:40;;;;;;;;;;;;;;;12.53;71.53;102054.91;1265757;23;650;-70
2023/02/03 01:52:31;;;;;;;;;;;;;;;12.52;71.18;102051.38;1264810;23;669;-70
2023/02/03 01:53:21;;;;;;;;;;;;;;;12.52;71.90;102047.84;1266964;23;642;-70
2023/02/03 01:54:11;;;;;;;;;;;;;;;12.52;71.44;102048.69;1267551;23;641;-70
2023/02/03 01:55:02;;;;;;;;;;;;;;;12.53;71.21;102049.56;1266437;23;744;-70
2023/02/03 01:55:52;;;;;;;;;;;;;;;12.52;71.12;102037.16;1265825;23;658;-69
2023/02/03 01:56:43;;;;;;;;;;;;;;;12.51;71.14;102043.44;1264540;23;677;-70
2023/02/03 01:57:33;;;;;;;;;;;;;;;12.49;71.45;102048.00;1265757;23;634;-70
2023/02/03 01:58:24;;;;;;;;;;;;;;;12.50;71.45;102052.41;1263836;23;665;-70
2023/02/03 01:59:15;;;;;;;;;;;;;;;12.49;71.64;102039.97;1265841;23;677;-70
2023/02/03 02:00:05;;;;;;;;;;;;;;;12.49;71.79;102050.66;1263997;23;628;-70
2023/02/03 02:00:56;;;;;;;;;;;;;;;12.49;71.32;102040.84;1265724;23;1944;-70
2023/02/03 02:01:46;;;;;;;;;;;;;;;12.49;71.48;102026.59;1265217;23;692;-70
2023/02/03 02:02:37;;;;;;;;;;;;;;;12.50;70.98;102020.31;1266257;23;700;-70
2023/02/03 02:03:27;;;;;;;;;;;;;;;12.49;71.24;102029.28;1264488;23;674;-70
2023/02/03 02:04:18;;;;;;;;;;;;;;;12.49;71.29;102023.94;1267032;23;677;-70
2023/02/03 02:05:08;;;;;;;;;;;;;;;12.48;70.75;102017.72;1267296;23;605;-70
2023/02/03 02:05:58;;;;;;;;;;;;;;;12.49;71.56;102026.59;1265840;23;618;-70
2023/02/03 02:06:50;;;;;;;;;;;;;;;12.49;71.68;102026.59;1266529;23;658;-70
2023/02/03 02:07:40;;;;;;;;;;;;;;;12.49;71.09;102015.91;1265841;23;692;-70
2023/02/03 02:08:31;;;;;;;;;;;;;;;12.48;71.55;102023.06;1264226;23;654;-70
2023/02/03 02:09:21;;;;;;;;;;;;;;;12.50;71.20;102026.53;1266134;23;692;-70
2023/02/03 02:10:12;;;;;;;;;;;;;;;12.48;71.51;102017.72;1267452;23;621;-69
2023/02/03 02:11:02;;;;;;;;;;;;;;;12.48;71.42;102024.88;1265765;23;634;-70
2023/02/03 02:11:53;;;;;;;;;;;;;;;12.49;71.17;102021.25;1266022;23;641;-70
2023/02/03 02:12:43;;;;;;;;;;;;;;;12.45;70.92;102012.53;1266477;23;653;-70
2023/02/03 02:13:33;;;;;;;;;;;;;;;12.48;70.74;102023.06;1265849;23;662;-69
2023/02/03 02:14:24;;;;;;;;;;;;;;;12.48;71.75;102032.91;1266360;23;658;-69
2023/02/03 02:15:14;;;;;;;;;;;;;;;12.49;71.12;102023.94;1265833;23;686;-69
2023/02/03 02:16:05;;;;;;;;;;;;;;;12.47;70.79;102031.16;1266388;23;654;-69
2023/02/03 02:16:55;;;;;;;;;;;;;;;12.47;70.76;102031.16;1267431;23;605;-69
2023/02/03 02:17:46;;;;;;;;;;;;;;;12.48;71.18;102030.22;1264409;23;700;-69
2023/02/03 02:18:36;;;;;;;;;;;;;;;12.48;71.46;102028.41;1265758;23;646;-70
2023/02/03 02:19:27;;;;;;;;;;;;;;;12.48;71.55;102023.06;1267252;23;728;-70
2023/02/03 02:20:17;;;;;;;;;;;;;;;12.44;71.35;102034.00;1265642;23;642;-70
2023/02/03 02:21:08;;;;;;;;;;;;;;;12.46;72.11;102034.78;1265739;23;1889;-70
2023/02/03 02:21:58;;;;;;;;;;;;;;;12.49;72.01;102031.94;1263906;23;618;-69
2023/02/03 02:22:48;;;;;;;;;;;;;;;12.49;71.31;102038.16;1265747;23;621;-70
2023/02/03 02:23:39;;;;;;;;;;;;;;;12.50;71.25;102031.88;1267410;23;769;-69
2023/02/03 02:24:29;;;;;;;;;;;;;;;12.51;72.13;102027.38;1264530;23;674;-70
2023/02/03 02:25:20;;;;;;;;;;;;;;;12.51;71.86;102028.25;1266296;23;627;-69
2023/02/03 02:26:10;;;;;;;;;;;;;;;12.51;71.43;102024.72;1267372;23;626;-70
2023/02/03 02:27:00;;;;;;;;;;;;;;;12.52;71.44;102021.09;1265825;23;610;-70
2023/02/03 02:27:51;;;;;;;;;;;;;;;12.52;71.53;102026.44;1263727;23;634;-70
2023/02/03 02:28:41;;;;;;;;;;;;;;;12.51;71.66;102035.41;1265714;23;618;-70
2023/02/03 02:29:32;;;;;;;;;;;;;;;12.52;71.24;102029.13;1265948;23;641;-70
2023/02/03 02:30:22;;;;;;;;;;;;;;;12.52;72.09;102021.09;1263901;23;646;-70
2023/02/03 02:31:13;;;;;;;;;;;;;;;12.51;71.37;102020.22;1265857;23;606;-70
2023/02/03 02:32:03;;;;;;;;;;;;;;;12.51;72.09;102030.06;1263930;23;788;-69
2023/02/03 02:32:53;;;;;;;;;;;;;;;12.51;71.52;102035.41;1265513;23;647;-70
2023/02/03 02:33:44;;;;;;;;;;;;;;;12.52;71.49;102018.44;1267341;23;692;-69
2023/02/03 02:34:34;;;;;;;;;;;;;;;12.52;71.32;102021.09;1263960;23;666;-69
2023/02/03 02:35:25;;;;;;;;;;;;;;;12.50;72.00;102014.97;1265813;23;610;-69
2023/02/03 02:36:15;;;;;;;;;;;;;;;12.52;72.12;102023.78;1265561;23;675;-69
2023/02/03 02:37:05;;;;;;;;;;;;;;;12.50;72.16;102020.31;1265743;23;696;-69
2023/02/03 02:37:56;;;;;;;;;;;;;;;12.51;71.82;102024.72;1265624;23;642;-69
2023/02/03 02:38:46;;;;;;;;;;;;;;;12.51;71.56;102038.09;1265503;23;634;-70
2023/02/03 02:39:37;;;;;;;;;;;;;;;12.50;71.28;102025.66;1266014;23;673;-70
2023/02/03 02:40:27;;;;;;;;;;;;;;;12.51;72.25;102019.38;1265577;23;730;-69
2023/02/03 02:41:18;;;;;;;;;;;;;;;12.51;71.55;102027.38;1265785;23;657;-70
2023/02/03 02:42:08;;;;;;;;;;;;;;;12.50;72.07;102036.34;1265447;23;649;-70
2023/02/03 02:42:59;;;;;;;;;;;;;;;12.51;71.53;102032.75;1264244;23;657;-70
2023/02/03 02:43:49;;;;;;;;;;;;;;;12.49;71.12;102021.25;1265494;23;642;-69
2023/02/03 02:44:39;;;;;;;;;;;;;;;12.49;71.36;102014.09;1265751;23;646;-69
2023/02/03 02:45:30;;;;;;;;;;;;;;;12.49;72.02;102027.47;1265748;23;617;-70
2023/02/03 02:46:20;;;;;;;;;;;;;;;12.51;71.56;102019.38;1265710;23;579;-70
2023/02/03 02:47:11;;;;;;;;;;;;;;;12.51;71.12;102014.03;1265856;23;650;-70
2023/02/03 02:48:01;;;;;;;;;;;;;;;12.51;72.00;102012.22;1265654;23;642;-70
2023/02/03 02:48:52;;;;;;;;;;;;;;;12.52;71.43;102018.44;1264288;23;642;-69
2023/02/03 02:49:42;;;;;;;;;;;;;;;12.50;72.02;102015.84;1265562;23;638;-69
2023/02/03 02:50:32;;;;;;;;;;;;;;;12.51;71.62;102017.56;1265789;23;856;-69
2023/02/03 02:51:23;;;;;;;;;;;;;;;12.48;71.97;102017.72;1265423;23;591;-69
2023/02/03 02:52:13;;;;;;;;;;;;;;;12.49;71.50;102013.25;1264084;23;634;-69
2023/02/03 02:53:04;;;;;;;;;;;;;;;12.50;71.21;102009.63;1264340;23;654;-69
2023/02/03 02:53:54;;;;;;;;;;;;;;;12.49;71.91;102024.78;1263723;23;599;-70
2023/02/03 02:54:45;;;;;;;;;;;;;;;12.51;72.01;102024.72;1265758;23;669;-69
2023/02/03 02:55:35;;;;;;;;;;;;;;;12.50;71.74;102026.53;1263763;23;646;-69
2023/02/03 02:56:25;;;;;;;;;;;;;;;12.51;71.96;102006.88;1265697;23;649;-69
2023/02/03 02:57:16;;;;;;;;;;;;;;;12.51;71.98;102008.69;1267415;23;657;-69
2023/02/03 02:58:06;;;;;;;;;;;;;;;12.52;71.90;102013.06;1263882;23;650;-70
2023/02/03 02:58:57;;;;;;;;;;;;;;;12.52;71.51;102018.44;1265783;23;646;-69
2023/02/03 02:59:47;;;;;;;;;;;;;;;12.50;71.91;102006.94;1265059;23;638;-70
2023/02/03 03:00:38;;;;;;;;;;;;;;;12.50;71.72;102009.63;1265840;23;610;-70
2023/02/03 03:01:28;;;;;;;;;;;;;;;12.51;71.07;102003.34;1266272;23;674;-69
2023/02/03 03:02:18;;;;;;;;;;;;;;;12.51;71.39;102003.34;1263891;23;611;-70
2023/02/03 03:03:09;;;;;;;;;;;;;;;12.51;72.06;102001.53;1265836;23;641;-70
2023/02/03 03:03:59;;;;;;;;;;;;;;;12.51;72.04;102011.34;1266515;23;677;-69
2023/02/03 03:04:50;;;;;;;;;;;;;;;12.49;71.02;102011.44;1265767;23;639;-70
2023/02/03 03:05:40;;;;;;;;;;;;;;;12.50;71.06;102015.84;1265729;23;653;-70
2023/02/03 03:06:30;;;;;;;;;;;;;;;12.51;71.30;102022.03;1265652;23;665;-69
2023/02/03 03:07:21;;;;;;;;;;;;;;;12.51;71.94;102014.03;1265896;23;633;-69
2023/02/03 03:08:11;;;;;;;;;;;;;;;12.52;70.96;102013.06;1263995;23;738;-69
2023/02/03 03:09:02;;;;;;;;;;;;;;;12.52;71.91;102018.44;1265955;23;649;-69
2023/02/03 03:09:52;;;;;;;;;;;;;;;12.52;71.64;102024.63;1266428;23;634;-69
2023/02/03 03:10:43;;;;;;;;;;;;;;;12.52;71.69;102015.75;1265632;23;653;-69
2023/02/03 03:11:33;;;;;;;;;;;;;;;12.51;71.43;102022.91;1263742;23;665;-69
2023/02/03 03:12:23;;;;;;;;;;;;;;;12.51;71.97;102030.94;1265609;23;618;-69
2023/02/03 03:13:14;;;;;;;;;;;;;;;12.51;72.05;102032.75;1265956;23;630;-69
2023/02/03 03:14:04;;;;;;;;;;;;;;;12.50;72.06;102018.50;1265477;23;628;-69
2023/02/03 03:14:55;;;;;;;;;;;;;;;12.52;71.50;102021.09;1265719;23;654;-69
2023/02/03 03:15:45;;;;;;;;;;;;;;;12.52;71.20;102018.44;1265541;23;646;-69
2023/02/03 03:16:35;;;;;;;;;;;;;;;12.51;71.27;102012.22;1265734;23;708;-69
2023/02/03 03:17:26;;;;;;;;;;;;;;;12.51;72.16;102028.25;1266299;23;745;-69
2023/02/03 03:18:16;;;;;;;;;;;;;;;12.51;72.04;102011.34;1265542;23;665;-69
2023/02/03 03:19:07;;;;;;;;;;;;;;;12.52;71.70;102026.44;1265803;23;652;-69
2023/02/03 03:19:57;;;;;;;;;;;;;;;12.51;71.68;102014.88;1263875;23;661;-69
2023/02/03 03:20:48;;;;;;;;;;;;;;;12.51;71.05;102008.69;1265949;23;619;-70
2023/02/03 03:21:38;;;;;;;;;;;;;;;12.51;71.29;102016.69;1265657;23;640;-70
2023/02/03 03:22:29;;;;;;;;;;;;;;;12.50;71.15;102012.28;1265676;23;673;-69
2023/02/03 03:23:19;;;;;;;;;;;;;;;12.50;71.47;102009.63;1264016;23;638;-70
2023/02/03 03:24:09;;;;;;;;;;;;;;;12.51;71.96;102006.00;1267010;23;625;-69
2023/02/03 03:25:00;;;;;;;;;;;;;;;12.52;71.38;102031.78;1267325;23;605;-68
2023/02/03 03:25:50;;;;;;;;;;;;;;;12.51;71.23;102014.03;1265694;23;625;-68
2023/02/03 03:26:41;;;;;;;;;;;;;;;12.52;71.20;102018.44;1265852;23;633;-69
2023/02/03 03:27:31;;;;;;;;;;;;;;;12.51;71.10;102022.03;1263844;23;609;-69
2023/02/03 03:28:23;;;;;;;;;;;;;;;12.51;71.46;102030.06;1265697;23;634;-69
2023/02/03 03:29:13;;;;;;;;;;;;;;;12.51;70.97;102027.38;1263770;23;626;-69
2023/02/03 03:30:03;;;;;;;;;;;;;;;12.51;71.98;102022.03;1265587;23;627;-69
2023/02/03 03:30:54;;;;;;;;;;;;;;;12.51;71.54;102027.38;1264357;23;688;-68
2023/02/03 03:31:44;;;;;;;;;;;;;;;12.51;71.06;102030.06;1265596;23;622;-68
2023/02/03 03:32:35;;;;;;;;;;;;;;;12.51;71.32;102030.06;1265843;23;681;-68
2023/02/03 03:33:25;;;;;;;;;;;;;;;12.50;71.50;102037.22;1266337;23;708;-69
2023/02/03 03:34:16;;;;;;;;;;;;;;;12.50;71.61;102026.53;1265784;23;619;-69
2023/02/03 03:35:06;;;;;;;;;;;;;;;12.50;71.69;102028.34;1266370;23;598;-69
2023/02/03 03:35:57;;;;;;;;;;;;;;;12.51;71.14;102032.75;1265965;23;613;-69
2023/02/03 03:36:47;;;;;;;;;;;;;;;12.51;71.17;102030.06;1266451;23;701;-69
2023/02/03 03:37:38;;;;;;;;;;;;;;;12.51;71.40;102020.22;1265837;23;644;-69
2023/02/03 03:38:31;;;;;;;;;;;;;;;12.49;71.40;102022.13;1266474;23;635;-69
2023/02/03 03:39:21;;;;;;;;;;;;;;;12.49;71.71;102029.28;1265455;23;630;-69
2023/02/03 03:40:11;;;;;;;;;;;;;;;12.49;71.30;102019.44;1265655;23;649;-69
2023/02/03 03:41:02;;;;;;;;;;;;;;;12.50;71.93;102017.66;1265682;23;1936;-69
2023/02/03 03:41:52;;;;;;;;;;;;;;;12.49;71.90;102030.16;1265513;23;641;-69
2023/02/03 03:42:45;;;;;;;;;;;;;;;12.51;71.68;102028.25;1265812;23;685;-68
2023/02/03 03:43:35;;;;;;;;;;;;;;;12.50;71.84;102026.53;1264982;23;645;-68
2023/02/03 03:44:25;;;;;;;;;;;;;;;12.49;71.52;102019.44;1264313;23;669;-68
2023/02/03 03:45:16;;;;;;;;;;;;;;;12.49;70.91;102015.91;1266211;23;631;-68
2023/02/03 03:46:06;;;;;;;;;;;;;;;12.51;71.53;102024.72;1266019;23;629;-68
2023/02/03 03:46:57;;;;;;;;;;;;;;;12.50;71.47;102023.00;1266151;23;673;-68
2023/02/03 03:47:47;;;;;;;;;;;;;;;12.50;71.85;102028.34;1265929;23;635;-68
2023/02/03 03:48:38;;;;;;;;;;;;;;;12.49;71.53;102030.16;1266198;23;653;-68
2023/02/03 03:49:28;;;;;;;;;;;;;;;12.49;70.83;102019.44;1264080;23;670;-68
2023/02/03 03:50:19;;;;;;;;;;;;;;;12.48;71.28;102025.75;1264811;23;677;-68
2023/02/03 03:51:09;;;;;;;;;;;;;;;12.49;71.19;102029.28;1266575;23;633;-68
2023/02/03 03:51:59;;;;;;;;;;;;;;;12.49;71.47;102030.16;1271506;23;623;-68
2023/02/03 03:52:50;;;;;;;;;;;;;;;12.49;71.24;102027.47;1266430;23;594;-68
2023/02/03 03:53:40;;;;;;;;;;;;;;;12.50;71.07;102029.19;1265787;23;669;-68
2023/02/03 03:54:31;;;;;;;;;;;;;;;12.50;70.83;102036.34;1264520;23;645;-68
2023/02/03 03:55:21;;;;;;;;;;;;;;;12.50;70.94;102041.72;1267682;23;645;-69
2023/02/03 03:56:13;;;;;;;;;;;;;;;12.50;71.69;102031.00;1266056;23;608;-69
2023/02/03 03:57:03;;;;;;;;;;;;;;;12.49;71.53;102045.31;1267673;23;645;-69
2023/02/03 03:57:53;;;;;;;;;;;;;;;12.48;70.82;102033.75;1265406;23;606;-68
2023/02/03 03:58:45;;;;;;;;;;;;;;;12.49;71.32;102026.59;1264489;23;669;-69
2023/02/03 03:59:35;;;;;;;;;;;;;;;12.48;71.03;102022.22;1264156;23;635;-69
2023/02/03 04:00:26;;;;;;;;;;;;;;;12.48;71.69;102024.88;1265915;23;646;-69
2023/02/03 04:01:16;;;;;;;;;;;;;;;12.48;71.54;102031.09;1266646;23;1960;-69
2023/02/03 04:02:06;;;;;;;;;;;;;;;12.48;71.23;102032.91;1265894;23;641;-69
2023/02/03 04:02:57;;;;;;;;;;;;;;;12.50;70.87;102039.03;1266207;23;678;-69
2023/02/03 04:03:47;;;;;;;;;;;;;;;12.50;71.10;102036.34;1266801;23;586;-68
2023/02/03 04:04:38;;;;;;;;;;;;;;;12.50;71.24;102034.56;1266145;23;634;-68
2023/02/03 04:05:28;;;;;;;;;;;;;;;12.49;70.61;102031.94;1264068;23;603;-68
2023/02/03 04:06:19;;;;;;;;;;;;;;;12.48;71.33;102038.25;1266095;23;741;-69
2023/02/03 04:07:09;;;;;;;;;;;;;;;12.49;71.65;102037.31;1266581;23;783;-69
2023/02/03 04:08:01;;;;;;;;;;;;;;;12.49;70.73;102045.31;1265994;23;598;-69
2023/02/03 04:08:52;;;;;;;;;;;;;;;12.49;70.56;102037.31;1264627;23;669;-69
2023/02/03 04:09:42;;;;;;;;;;;;;;;12.47;71.34;102041.88;1266704;23;646;-69
2023/02/03 04:10:33;;;;;;;;;;;;;;;12.47;70.89;102032.03;1264400;23;643;-69
2023/02/03 04:12:32;;;;;;;;;;;;;;;12.48;71.38;102039.09;1266310;23;602;-69
2023/02/03 04:13:22;;;;;;;;;;;;;;;12.45;71.51;102044.63;1265822;23;705;-70
2023/02/03 04:14:13;;;;;;;;;;;;;;;12.47;71.55;102033.84;1266207;23;649;-70
2023/02/03 04:15:03;;;;;;;;;;;;;;;12.47;70.86;102049.88;1264089;23;642;-70
2023/02/03 04:15:54;;;;;;;;;;;;;;;12.47;71.04;102039.19;1266045;23;664;-70
2023/02/03 04:16:44;;;;;;;;;;;;;;;12.49;70.53;102048.00;1265747;23;598;-70
2023/02/03 04:17:35;;;;;;;;;;;;;;;12.48;71.35;102041.78;1265972;23;658;-71
2023/02/03 04:18:25;;;;;;;;;;;;;;;12.47;70.94;102041.88;1266006;23;641;-70
2023/02/03 04:19:16;;;;;;;;;;;;;;;12.46;71.36;102046.34;1266033;23;677;-71
2023/02/03 04:20:06;;;;;;;;;;;;;;;12.46;71.42;102038.31;1266656;23;770;-70
2023/02/03 04:20:56;;;;;;;;;;;;;;;12.46;71.36;102037.47;1264238;23;1877;-70
2023/02/03 04:21:47;;;;;;;;;;;;;;;12.46;71.36;102030.31;1266125;23;669;-70
2023/02/03 04:22:37;;;;;;;;;;;;;;;12.47;70.52;102044.53;1265751;23;606;-71
2023/02/03 04:23:28;;;;;;;;;;;;;;;12.46;71.38;102037.47;1266044;23;669;-70
2023/02/03 04:24:18;;;;;;;;;;;;;;;12.46;71.67;102032.97;1265756;23;634;-71
2023/02/03 04:25:09;;;;;;;;;;;;;;;12.47;71.82;102036.53;1266027;23;641;-71
2023/02/03 04:25:59;;;;;;;;;;;;;;;12.47;71.19;102033.84;1263915;23;643;-71
2023/02/03 04:26:49;;;;;;;;;;;;;;;12.47;70.82;102031.16;1265384;23;627;-70
2023/02/03 04:27:40;;;;;;;;;;;;;;;12.46;70.66;102030.31;1266087;23;668;-71